createdAt,value
2022-10-05T00:00:59.684Z,1.80
2022-10-05T00:03:36.944Z,2.27
2022-10-05T00:06:04.101Z,2.10
2022-10-05T00:08:34.104Z,3.23
2022-10-05T00:11:01.642Z,3.33
2022-10-05T00:13:30.963Z,2.20
2022-10-05T00:16:19.319Z,3.03
2022-10-05T00:18:51.611Z,1.83
2022-10-05T00:21:20.388Z,2.80
2022-10-05T00:23:47.315Z,2.53
2022-10-05T00:26:21.848Z,2.67
2022-10-05T00:28:49.613Z,3.20
2022-10-05T00:31:19.654Z,2.37
2022-10-05T00:33:48.031Z,3.90
2022-10-05T00:36:15.601Z,3.53
2022-10-05T00:38:43.282Z,2.60
2022-10-05T00:41:22.942Z,2.30
2022-10-05T00:44:15.417Z,2.83
2022-10-05T00:47:07.351Z,3.40
2022-10-05T00:49:56.689Z,3.27
2022-10-05T00:52:38.612Z,2.27
2022-10-05T00:55:05.412Z,2.70
2022-10-05T00:58:04.516Z,2.80
2022-10-05T01:00:39.814Z,3.20
2022-10-05T01:03:37.019Z,2.27
2022-10-05T01:06:27.320Z,2.53
2022-10-05T01:09:02.735Z,3.70
2022-10-05T01:11:48.117Z,2.17
2022-10-05T01:14:40.672Z,2.57
2022-10-05T01:17:20.433Z,2.50
2022-10-05T01:19:56.546Z,3.17
2022-10-05T01:22:45.219Z,2.50
2022-10-05T01:25:21.419Z,2.57
2022-10-05T01:27:48.296Z,2.63
2022-10-05T01:30:18.708Z,2.50
2022-10-05T01:33:28.123Z,2.67
2022-10-05T01:35:57.724Z,2.90
2022-10-05T01:38:30.148Z,2.47
2022-10-05T01:41:25.304Z,2.57
2022-10-05T01:43:56.556Z,2.93
2022-10-05T01:46:35.989Z,2.40
2022-10-05T01:49:20.977Z,3.13
2022-10-05T01:51:50.836Z,2.47
2022-10-05T01:54:40.026Z,2.80
2022-10-05T01:57:19.364Z,2.90
2022-10-05T02:00:09.261Z,2.73
2022-10-05T02:03:01.417Z,3.70
2022-10-05T02:05:50.601Z,3.70
2022-10-05T02:08:23.494Z,3.27
2022-10-05T02:11:07.633Z,4.27
2022-10-05T02:14:00.125Z,3.83
2022-10-05T02:16:45.657Z,3.73
2022-10-05T02:19:27.599Z,3.57
2022-10-05T02:22:08.545Z,3.53
2022-10-05T02:24:44.517Z,3.40
2022-10-05T02:27:18.274Z,3.53
2022-10-05T02:29:48.874Z,3.20
2022-10-05T02:32:22.832Z,4.47
2022-10-05T02:34:50.279Z,4.43
2022-10-05T02:37:42.949Z,3.40
2022-10-05T02:40:34.717Z,3.47
2022-10-05T02:43:13.780Z,3.83
2022-10-05T02:46:03.958Z,3.37
2022-10-05T02:48:57.319Z,3.30
2022-10-05T02:51:33.247Z,3.20
2022-10-05T02:54:33.115Z,3.30
2022-10-05T02:57:16.381Z,3.03
2022-10-05T03:00:14.993Z,3.20
2022-10-05T03:02:51.269Z,4.73
2022-10-05T03:05:33.955Z,3.17
2022-10-05T03:08:04.064Z,3.67
2022-10-05T03:10:47.876Z,2.73
2022-10-05T03:13:30.397Z,3.43
2022-10-05T03:16:09.852Z,3.27
2022-10-05T03:18:44.839Z,3.47
2022-10-05T03:21:12.160Z,4.93
2022-10-05T03:24:06.464Z,5.70
2022-10-05T03:26:47.882Z,5.77
2022-10-05T03:29:33.263Z,3.63
2022-10-05T03:32:34.634Z,3.67
2022-10-05T03:35:28.875Z,6.60
2022-10-05T03:38:02.156Z,7.53
2022-10-05T03:40:38.717Z,4.20
2022-10-05T03:43:38.623Z,4.37
2022-10-05T03:46:32.028Z,4.20
2022-10-05T03:49:05.331Z,5.23
2022-10-05T03:51:37.485Z,4.83
2022-10-05T03:54:15.978Z,5.63
2022-10-05T03:56:51.737Z,4.20
2022-10-05T03:59:30.142Z,5.13
2022-10-05T04:02:15.705Z,3.97
2022-10-05T04:04:48.918Z,4.27
2022-10-05T04:07:33.443Z,6.53
2022-10-05T04:10:03.342Z,4.17
2022-10-05T04:12:43.785Z,5.30
2022-10-05T04:15:45.356Z,4.47
2022-10-05T04:18:27.112Z,4.33
2022-10-05T04:21:23.955Z,5.53
2022-10-05T04:24:13.389Z,4.90
2022-10-05T04:26:55.830Z,6.50
2022-10-05T04:29:38.171Z,5.90
2022-10-05T04:32:50.160Z,10.60
2022-10-05T04:35:31.495Z,5.37
2022-10-05T04:38:15.972Z,4.30
2022-10-05T04:41:13.337Z,5.93
2022-10-05T04:43:46.696Z,6.27
2022-10-05T04:46:53.435Z,5.20
2022-10-05T04:49:44.953Z,5.50
2022-10-05T04:52:31.470Z,6.80
2022-10-05T04:55:36.025Z,12.27
2022-10-05T04:58:42.086Z,7.50
2022-10-05T05:01:45.686Z,6.93
2022-10-05T05:04:43.160Z,7.53
2022-10-05T05:07:19.926Z,5.10
2022-10-05T05:10:24.592Z,5.57
2022-10-05T05:13:22.601Z,4.83
2022-10-05T05:16:04.709Z,5.00
2022-10-05T05:19:04.647Z,5.57
2022-10-05T05:22:20.906Z,3.37
2022-10-05T05:25:21.078Z,7.57
2022-10-05T05:27:57.065Z,7.47
2022-10-05T05:30:43.350Z,7.43
2022-10-05T05:33:17.510Z,4.43
2022-10-05T05:35:55.843Z,4.13
2022-10-05T05:38:41.483Z,4.37
2022-10-05T05:41:09.338Z,5.10
2022-10-05T05:43:51.379Z,5.20
2022-10-05T05:47:04.786Z,5.07
2022-10-05T05:49:49.757Z,5.63
2022-10-05T05:52:24.368Z,7.20
2022-10-05T05:55:20.956Z,5.07
2022-10-05T05:58:15.490Z,9.57
2022-10-05T06:00:53.853Z,5.93
2022-10-05T06:03:51.812Z,6.13
2022-10-05T06:06:25.865Z,7.03
2022-10-05T06:08:57.129Z,5.20
2022-10-05T06:11:53.601Z,4.13
2022-10-05T06:14:42.570Z,5.53
2022-10-05T06:17:26.942Z,4.70
2022-10-05T06:20:02.503Z,6.10
2022-10-05T06:22:44.238Z,5.93
2022-10-05T06:25:15.094Z,4.87
2022-10-05T06:27:56.989Z,4.97
2022-10-05T06:30:26.385Z,8.27
2022-10-05T06:33:15.524Z,6.10
2022-10-05T06:36:07.643Z,4.93
2022-10-05T06:38:47.042Z,5.43
2022-10-05T06:41:48.052Z,9.57
2022-10-05T06:44:33.558Z,14.10
2022-10-05T06:47:47.515Z,8.17
2022-10-05T06:50:56.977Z,6.47
2022-10-05T06:54:04.216Z,8.60
2022-10-05T06:57:03.029Z,8.13
2022-10-05T07:00:01.969Z,7.90
2022-10-05T07:02:40.931Z,9.30
2022-10-05T07:05:29.673Z,4.43
2022-10-05T07:07:58.532Z,6.00
2022-10-05T07:10:57.318Z,4.97
2022-10-05T07:13:43.828Z,3.57
2022-10-05T07:16:36.618Z,7.13
2022-10-05T07:19:20.174Z,6.70
2022-10-05T07:22:37.351Z,4.93
2022-10-05T07:25:20.469Z,3.70
2022-10-05T07:27:55.801Z,5.63
2022-10-05T07:30:23.609Z,10.27
2022-10-05T07:33:09.965Z,3.70
2022-10-05T07:36:19.332Z,6.90
2022-10-05T07:38:59.380Z,4.30
2022-10-05T07:41:46.106Z,2.03
2022-10-05T07:44:17.058Z,2.00
2022-10-05T07:46:58.044Z,1.77
2022-10-05T07:49:47.758Z,2.93
2022-10-05T07:52:26.585Z,4.80
2022-10-05T07:55:20.771Z,1.43
2022-10-05T07:58:24.131Z,3.90
2022-10-05T08:01:13.724Z,2.03
2022-10-05T08:03:58.590Z,1.97
2022-10-05T08:06:57.337Z,1.47
2022-10-05T08:09:46.448Z,1.70
2022-10-05T08:12:24.171Z,3.77
2022-10-05T08:15:10.055Z,1.40
2022-10-05T08:17:53.217Z,2.07
2022-10-05T08:20:23.020Z,0.93
2022-10-05T08:22:58.633Z,1.10
2022-10-05T08:25:33.949Z,1.43
2022-10-05T08:28:13.052Z,1.70
2022-10-05T08:31:31.979Z,3.37
2022-10-05T08:34:21.131Z,1.30
2022-10-05T08:37:00.265Z,1.17
2022-10-05T08:39:34.324Z,3.87
2022-10-05T08:42:58.267Z,1.40
2022-10-05T08:45:53.281Z,1.43
2022-10-05T08:48:50.241Z,2.63
2022-10-05T08:51:49.593Z,1.60
2022-10-05T08:54:27.278Z,1.20
2022-10-05T08:57:15.824Z,2.83
2022-10-05T09:00:04.393Z,1.13
2022-10-05T09:02:35.101Z,3.83
2022-10-05T09:05:33.521Z,3.40
2022-10-05T09:08:13.025Z,1.10
2022-10-05T09:11:02.581Z,2.87
2022-10-05T09:13:39.507Z,3.63
2022-10-05T09:16:15.275Z,3.67
2022-10-05T09:19:23.701Z,1.70
2022-10-05T09:21:56.741Z,3.07
2022-10-05T09:25:03.530Z,1.40
2022-10-05T09:27:37.612Z,0.90
2022-10-05T09:30:19.089Z,1.40
2022-10-05T09:33:34.767Z,1.53
2022-10-05T09:36:30.549Z,2.50
2022-10-05T09:39:13.860Z,2.10
2022-10-05T09:41:43.399Z,1.90
2022-10-05T09:44:31.711Z,2.70
2022-10-05T09:47:30.301Z,2.13
2022-10-05T09:50:28.095Z,1.70
2022-10-05T09:53:09.917Z,2.93
2022-10-05T09:56:19.688Z,2.73
2022-10-05T09:59:08.684Z,1.10
2022-10-05T10:01:40.585Z,2.20
2022-10-05T10:04:48.591Z,4.97
2022-10-05T10:07:52.018Z,1.70
2022-10-05T10:10:54.302Z,1.83
2022-10-05T10:13:58.178Z,2.07
2022-10-05T10:16:53.712Z,1.43
2022-10-05T10:19:47.561Z,1.53
2022-10-05T10:22:33.004Z,2.03
2022-10-05T10:25:35.338Z,5.33
2022-10-05T10:28:41.138Z,2.90
2022-10-05T10:31:26.140Z,1.87
2022-10-05T10:34:08.154Z,1.10
2022-10-05T10:36:54.115Z,0.90
2022-10-05T10:39:58.408Z,1.77
2022-10-05T10:42:30.904Z,5.30
2022-10-05T10:45:28.748Z,3.17
2022-10-05T10:48:18.611Z,2.43
2022-10-05T10:51:29.816Z,2.63
2022-10-05T10:54:21.020Z,3.20
2022-10-05T10:56:55.061Z,2.30
2022-10-05T10:59:59.215Z,4.33
2022-10-05T11:02:46.825Z,1.80
2022-10-05T11:05:23.250Z,1.30
2022-10-05T11:08:02.119Z,5.00
2022-10-05T11:10:46.784Z,1.57
2022-10-05T11:13:37.328Z,1.70
2022-10-05T11:16:28.762Z,1.77
2022-10-05T11:18:58.699Z,1.97
2022-10-05T11:21:44.275Z,4.47
2022-10-05T11:24:25.932Z,2.13
2022-10-05T11:26:55.538Z,1.53
2022-10-05T11:30:02.077Z,1.10
2022-10-05T11:32:56.242Z,3.17
2022-10-05T11:35:38.304Z,1.43
2022-10-05T11:38:17.026Z,1.17
2022-10-05T11:41:23.164Z,1.63
2022-10-05T11:44:07.955Z,1.47
2022-10-05T11:47:25.678Z,1.90
2022-10-05T11:50:06.634Z,1.80
2022-10-05T11:52:52.268Z,1.10
2022-10-05T11:55:33.852Z,2.13
2022-10-05T11:58:23.637Z,3.87
2022-10-05T12:01:04.244Z,1.50
2022-10-05T12:03:59.395Z,1.33
2022-10-05T12:06:43.786Z,1.63
2022-10-05T12:09:14.488Z,1.57
2022-10-05T12:12:06.289Z,1.63
2022-10-05T12:14:42.307Z,1.13
2022-10-05T12:17:24.387Z,1.37
2022-10-05T12:19:57.986Z,0.80
2022-10-05T12:22:34.815Z,1.73
2022-10-05T12:25:28.735Z,2.37
2022-10-05T12:28:04.857Z,1.47
2022-10-05T12:31:06.319Z,0.77
2022-10-05T12:33:45.522Z,1.87
2022-10-05T12:36:17.844Z,0.83
2022-10-05T12:39:05.037Z,2.73
2022-10-05T12:41:57.868Z,1.00
2022-10-05T12:44:46.302Z,0.93
2022-10-05T12:47:23.821Z,0.90
2022-10-05T12:50:16.957Z,1.10
2022-10-05T12:52:53.010Z,2.27
2022-10-05T12:55:42.533Z,2.03
2022-10-05T12:58:31.283Z,1.77
2022-10-05T13:01:24.716Z,7.00
2022-10-05T13:04:01.693Z,1.37
2022-10-05T13:06:48.492Z,1.13
2022-10-05T13:09:34.003Z,1.30
2022-10-05T13:12:18.005Z,1.67
2022-10-05T13:14:47.854Z,1.57
2022-10-05T13:17:29.793Z,1.17
2022-10-05T13:20:03.778Z,3.57
2022-10-05T13:22:34.871Z,1.27
2022-10-05T13:25:25.877Z,2.43
2022-10-05T13:27:55.562Z,1.20
2022-10-05T13:30:22.755Z,1.33
2022-10-05T13:33:08.159Z,1.60
2022-10-05T13:36:00.921Z,1.00
2022-10-05T13:38:51.065Z,1.70
2022-10-05T13:41:36.660Z,1.37
2022-10-05T13:44:18.288Z,1.30
2022-10-05T13:47:06.702Z,1.67
2022-10-05T13:49:51.654Z,1.47
2022-10-05T13:52:37.740Z,1.30
2022-10-05T13:55:38.452Z,2.30
2022-10-05T14:01:24.366Z,1.57
2022-10-05T14:04:20.607Z,2.03
2022-10-05T14:06:49.452Z,2.63
2022-10-05T14:09:25.398Z,3.13
2022-10-05T14:12:01.996Z,1.60
2022-10-05T14:14:31.912Z,3.00
2022-10-05T14:17:05.809Z,1.50
2022-10-05T14:19:42.131Z,1.17
2022-10-05T14:22:23.659Z,1.17
2022-10-05T14:25:02.917Z,1.80
2022-10-05T14:27:51.807Z,1.90
2022-10-05T14:30:25.717Z,2.67
2022-10-05T14:33:04.485Z,1.07
2022-10-05T14:35:49.050Z,1.00
2022-10-05T14:38:18.169Z,1.80
2022-10-05T14:40:45.134Z,1.20
2022-10-05T14:43:16.749Z,3.33
2022-10-05T14:45:58.782Z,1.93
2022-10-05T14:48:28.208Z,1.83
2022-10-05T14:51:00.462Z,2.00
2022-10-05T14:53:40.939Z,1.40
2022-10-05T14:56:26.664Z,7.70
2022-10-05T14:59:23.255Z,2.77
2022-10-05T15:02:01.066Z,12.17
2022-10-05T15:04:29.437Z,1.67
2022-10-05T15:07:32.158Z,2.00
2022-10-05T15:10:19.117Z,2.77
2022-10-05T15:12:48.478Z,2.20
2022-10-05T15:15:32.841Z,2.53
2022-10-05T15:18:05.794Z,1.63
2022-10-05T15:20:53.655Z,1.70
2022-10-05T15:23:25.708Z,3.23
2022-10-05T15:26:46.659Z,1.27
2022-10-05T15:29:26.161Z,1.30
2022-10-05T15:31:55.766Z,1.97
2022-10-05T15:34:36.236Z,4.50
2022-10-05T15:37:19.812Z,2.33
2022-10-05T15:39:46.650Z,3.80
2022-10-05T15:42:29.529Z,7.80
2022-10-05T15:45:14.140Z,6.00
2022-10-05T15:47:53.185Z,3.60
2022-10-05T15:50:26.641Z,2.90
2022-10-05T15:53:06.614Z,3.50
2022-10-05T15:55:51.263Z,2.90
2022-10-05T15:58:45.568Z,3.97
2022-10-05T16:01:21.274Z,1.93
2022-10-05T16:03:52.258Z,1.93
2022-10-05T16:07:03.770Z,3.43
2022-10-05T16:15:35.684Z,3.03
2022-10-05T16:18:36.020Z,2.17
2022-10-05T16:21:15.204Z,3.37
2022-10-05T16:24:06.420Z,1.83
2022-10-05T16:26:56.942Z,2.10
2022-10-05T16:29:33.022Z,1.40
2022-10-05T16:32:17.192Z,1.93
2022-10-05T16:35:10.837Z,1.37
2022-10-05T16:38:06.708Z,1.67
2022-10-05T16:40:59.638Z,2.43
2022-10-05T16:43:44.955Z,1.63
2022-10-05T16:46:28.056Z,2.53
2022-10-05T16:49:09.471Z,3.23
2022-10-05T16:51:44.629Z,1.47
2022-10-05T16:54:18.281Z,1.83
2022-10-05T16:56:52.147Z,1.53
2022-10-05T16:59:34.077Z,1.53
2022-10-05T17:02:33.722Z,3.47
2022-10-05T17:05:25.765Z,3.93
2022-10-05T17:07:55.351Z,2.73
2022-10-05T17:10:37.254Z,2.00
2022-10-05T17:13:29.627Z,3.17
2022-10-05T17:16:22.064Z,9.30
2022-10-05T17:19:19.942Z,11.53
2022-10-05T17:22:06.071Z,9.93
2022-10-05T17:24:54.316Z,10.43
2022-10-05T17:27:50.938Z,7.93
2022-10-05T17:30:21.017Z,6.93
2022-10-05T17:33:14.271Z,11.83
2022-10-05T17:35:51.798Z,41.97
2022-10-05T17:38:49.022Z,21.40
2022-10-05T17:41:19.614Z,18.50
2022-10-05T17:44:17.675Z,20.53
2022-10-05T17:46:50.172Z,15.73
2022-10-05T17:49:46.829Z,27.67
2022-10-05T17:52:44.407Z,15.00
2022-10-05T17:55:28.146Z,5.10
2022-10-05T17:57:58.747Z,4.40
2022-10-05T18:00:32.883Z,4.07
2022-10-05T18:03:00.250Z,4.43
2022-10-05T18:05:29.318Z,3.10
2022-10-05T18:08:11.516Z,3.53
2022-10-05T18:10:59.428Z,3.87
2022-10-05T18:13:47.908Z,2.70
2022-10-05T18:16:53.177Z,4.30
2022-10-05T18:19:22.349Z,17.83
2022-10-05T18:22:15.054Z,11.47
2022-10-05T18:25:07.270Z,19.10
2022-10-05T18:27:50.946Z,14.07
2022-10-05T18:30:26.928Z,5.43
2022-10-05T18:33:03.525Z,6.23
2022-10-05T18:36:07.737Z,3.60
2022-10-05T18:38:44.576Z,3.00
2022-10-05T18:41:23.374Z,15.23
2022-10-05T18:44:06.154Z,9.03
2022-10-05T18:46:50.548Z,8.80
2022-10-05T18:49:48.657Z,4.17
2022-10-05T18:52:40.198Z,5.47
2022-10-05T18:55:23.628Z,2.80
2022-10-05T18:58:03.375Z,4.37
2022-10-05T19:01:12.594Z,5.97
2022-10-05T19:03:52.371Z,5.17
2022-10-05T19:06:32.910Z,4.97
2022-10-05T19:09:51.029Z,4.33
2022-10-05T19:12:29.495Z,5.03
2022-10-05T19:15:18.322Z,3.80
2022-10-05T19:18:07.944Z,4.90
2022-10-05T19:20:41.609Z,3.83
2022-10-05T19:23:39.140Z,7.33
2022-10-05T19:26:37.852Z,5.33
2022-10-05T19:29:33.494Z,8.23
2022-10-05T19:32:28.843Z,9.03
2022-10-05T19:35:17.811Z,6.30
2022-10-05T19:38:15.842Z,7.07
2022-10-05T19:41:07.387Z,5.33
2022-10-05T19:43:55.451Z,3.23
2022-10-05T19:47:00.273Z,4.40
2022-10-05T19:49:43.169Z,6.50
2022-10-05T19:52:21.287Z,5.07
2022-10-05T19:55:01.571Z,4.33
2022-10-05T19:57:28.813Z,3.23
2022-10-05T19:59:58.328Z,5.40
2022-10-05T20:02:27.117Z,9.03
2022-10-05T20:05:07.093Z,8.40
2022-10-05T20:07:35.113Z,12.87
2022-10-05T20:10:30.645Z,8.40
2022-10-05T20:13:00.549Z,7.87
2022-10-05T20:15:48.506Z,5.63
2022-10-05T20:19:01.965Z,9.03
2022-10-05T20:21:44.124Z,10.63
2022-10-05T20:24:23.676Z,10.37
2022-10-05T20:27:06.279Z,8.90
2022-10-05T20:29:43.532Z,11.53
2022-10-05T20:32:19.378Z,11.30
2022-10-05T20:34:48.475Z,5.90
2022-10-05T20:37:17.724Z,8.13
2022-10-05T20:39:44.725Z,7.67
2022-10-05T20:42:11.847Z,5.43
2022-10-05T20:44:39.665Z,5.47
2022-10-05T20:47:09.759Z,4.67
2022-10-05T20:49:39.129Z,5.63
2022-10-05T20:52:13.254Z,5.47
2022-10-05T20:54:40.237Z,4.73
2022-10-05T20:57:09.220Z,5.10
2022-10-05T20:59:36.394Z,3.77
2022-10-05T21:02:06.273Z,2.97
2022-10-05T21:04:41.978Z,2.77
2022-10-05T21:07:09.527Z,3.97
2022-10-05T21:09:38.674Z,4.30
2022-10-05T21:12:08.234Z,3.70
2022-10-05T21:14:36.537Z,3.37
2022-10-05T21:17:05.011Z,2.60
2022-10-05T21:19:38.186Z,2.93
2022-10-05T21:22:11.387Z,5.60
2022-10-05T21:24:41.226Z,4.00
2022-10-05T21:27:09.860Z,3.27
2022-10-05T21:29:37.188Z,3.53
2022-10-05T21:32:08.570Z,3.70
2022-10-05T21:34:35.792Z,4.53
2022-10-05T21:37:04.398Z,3.73
2022-10-05T21:39:31.453Z,2.50
2022-10-05T21:41:58.322Z,2.70
2022-10-05T21:44:25.179Z,2.13
2022-10-05T21:46:56.172Z,3.37
2022-10-05T21:49:25.751Z,2.40
2022-10-05T21:51:52.817Z,4.80
2022-10-05T21:54:22.467Z,3.53
2022-10-05T21:56:55.777Z,3.63
2022-10-05T21:59:27.782Z,3.70
2022-10-05T22:01:54.901Z,2.50
2022-10-05T22:04:22.629Z,3.67
2022-10-05T22:06:49.518Z,3.23
2022-10-05T22:09:16.403Z,2.87
2022-10-05T22:11:47.209Z,3.17
2022-10-05T22:14:17.263Z,3.93
2022-10-05T22:16:44.813Z,3.27
2022-10-05T22:19:16.642Z,3.63
2022-10-05T22:21:43.581Z,3.80
2022-10-05T22:24:11.682Z,4.77
2022-10-05T22:26:41.753Z,3.10
2022-10-05T22:29:09.670Z,4.57
2022-10-05T22:31:37.135Z,3.43
2022-10-05T22:34:04.091Z,3.33
2022-10-05T22:36:31.413Z,3.97
2022-10-05T22:38:58.461Z,5.00
2022-10-05T22:41:25.417Z,3.53
2022-10-05T22:43:52.772Z,3.47
2022-10-05T22:46:20.306Z,3.87
2022-10-05T22:48:48.066Z,3.17
2022-10-05T22:51:14.923Z,3.60
2022-10-05T22:53:41.855Z,3.27
2022-10-05T22:56:11.562Z,3.67
2022-10-05T22:58:38.623Z,5.20
2022-10-05T23:01:08.586Z,3.17
2022-10-05T23:03:35.655Z,3.63
2022-10-05T23:06:11.712Z,3.90
2022-10-05T23:08:39.852Z,7.83
2022-10-05T23:11:12.220Z,3.80
2022-10-05T23:13:39.475Z,5.10
2022-10-05T23:16:17.832Z,3.20
2022-10-05T23:18:47.527Z,7.77
2022-10-05T23:21:14.633Z,4.33
2022-10-05T23:23:47.440Z,2.70
2022-10-05T23:26:16.107Z,3.13
2022-10-05T23:28:46.660Z,4.63
2022-10-05T23:31:16.197Z,4.87
2022-10-05T23:33:43.883Z,4.37
2022-10-05T23:36:20.338Z,5.40
2022-10-05T23:38:47.581Z,6.43
2022-10-05T23:41:16.056Z,3.13
2022-10-05T23:43:43.592Z,3.07
2022-10-05T23:46:10.691Z,4.20
2022-10-05T23:48:40.483Z,4.93
2022-10-05T23:51:10.015Z,3.30
2022-10-05T23:53:37.438Z,4.13
2022-10-05T23:56:04.801Z,4.40
2022-10-05T23:58:32.004Z,3.33
